GOL1455 SBBR-SBGR
Flight info
| Callsign | GOL1455 |
|---|---|
| Flight time | 1h 24m |
| Altitude | 34000 |
| Route | ENRUR UZ38 VUNOX |
| Aircraft | B38M/M-SDE1FGHILORVWXY/HB1 |
Departure
| Time | 2026-05-04 18:17 |
|---|---|
| Airport | Presidente Juscelino Kubitschek International Airport (SBBR) |
Arrival
| Time | 2026-05-04 19:41 |
|---|---|
| Airport | São Paulo/Guarulhos–Governor André Franco Montoro International Airport (SBGR) |
| Time | Latitude | Longitude | Altitude | Speed | Heading |
|---|---|---|---|---|---|
| 2026-05-04 17:52 | -15.87267 | -47.91845 | 3479 ft | 0 kts | 357° |
| 2026-05-04 18:05 | -15.87273 | -47.91845 | 3477 ft | 4 kts | 356° |
| 2026-05-04 18:05 | -15.87297 | -47.91843 | 3477 ft | 4 kts | 358° |
| 2026-05-04 18:05 | -15.87319 | -47.91848 | 3478 ft | 4 kts | 47° |
| 2026-05-04 18:06 | -15.87328 | -47.91881 | 3425 ft | 1 kts | 86° |
| 2026-05-04 18:09 | -15.87327 | -47.91872 | 3477 ft | 2 kts | 86° |
| 2026-05-04 18:09 | -15.87323 | -47.91824 | 3479 ft | 2 kts | 84° |
| 2026-05-04 18:10 | -15.87318 | -47.91764 | 3479 ft | 15 kts | 87° |
| 2026-05-04 18:10 | -15.87367 | -47.91666 | 3473 ft | 21 kts | 169° |
| 2026-05-04 18:10 | -15.87518 | -47.91652 | 3468 ft | 23 kts | 178° |
| 2026-05-04 18:10 | -15.87681 | -47.91644 | 3464 ft | 20 kts | 184° |
| 2026-05-04 18:11 | -15.87742 | -47.91758 | 3464 ft | 20 kts | 268° |
| 2026-05-04 18:11 | -15.87753 | -47.91901 | 3466 ft | 20 kts | 265° |
| 2026-05-04 18:11 | -15.87763 | -47.92048 | 3465 ft | 21 kts | 266° |
| 2026-05-04 18:11 | -15.87773 | -47.92193 | 3469 ft | 20 kts | 267° |
| 2026-05-04 18:12 | -15.87782 | -47.92331 | 3472 ft | 19 kts | 266° |
| 2026-05-04 18:12 | -15.87791 | -47.92466 | 3471 ft | 19 kts | 266° |
| 2026-05-04 18:12 | -15.87800 | -47.92605 | 3474 ft | 19 kts | 265° |
| 2026-05-04 18:12 | -15.87808 | -47.92744 | 3476 ft | 19 kts | 267° |
| 2026-05-04 18:13 | -15.87815 | -47.92881 | 3478 ft | 19 kts | 266° |
| 2026-05-04 18:13 | -15.87823 | -47.93022 | 3478 ft | 20 kts | 266° |
| 2026-05-04 18:13 | -15.87841 | -47.93288 | 3486 ft | 16 kts | 266° |
| 2026-05-04 18:14 | -15.87848 | -47.93400 | 3485 ft | 15 kts | 266° |
| 2026-05-04 18:14 | -15.87854 | -47.93508 | 3498 ft | 14 kts | 264° |
| 2026-05-04 18:14 | -15.87862 | -47.93603 | 3498 ft | 12 kts | 266° |
| 2026-05-04 18:15 | -15.87877 | -47.93833 | 3516 ft | 21 kts | 266° |
| 2026-05-04 18:15 | -15.87970 | -47.93992 | 3513 ft | 10 kts | 177° |
| 2026-05-04 18:15 | -15.88042 | -47.93975 | 3515 ft | 12 kts | 138° |
| 2026-05-04 18:16 | -15.88058 | -47.93871 | 3508 ft | 25 kts | 87° |
| 2026-05-04 18:16 | -15.88028 | -47.93398 | 3488 ft | 105 kts | 86° |
| 2026-05-04 18:16 | -15.87966 | -47.92402 | 3478 ft | 169 kts | 86° |
| 2026-05-04 18:17 | -15.87882 | -47.89689 | 4890 ft | 184 kts | 107° |
| 2026-05-04 18:17 | -15.88586 | -47.88545 | 5250 ft | 199 kts | 137° |
| 2026-05-04 18:17 | -15.91471 | -47.87710 | 5492 ft | 238 kts | 165° |
| 2026-05-04 18:18 | -15.93079 | -47.87348 | 6253 ft | 242 kts | 165° |
| 2026-05-04 18:18 | -15.94795 | -47.86970 | 6737 ft | 260 kts | 166° |
| 2026-05-04 18:18 | -15.96571 | -47.86588 | 7549 ft | 262 kts | 166° |
| 2026-05-04 18:18 | -15.98370 | -47.86208 | 8312 ft | 267 kts | 167° |
| 2026-05-04 18:19 | -16.02069 | -47.85437 | 9026 ft | 273 kts | 168° |
| 2026-05-04 18:19 | -16.03937 | -47.85048 | 9078 ft | 281 kts | 168° |
| 2026-05-04 18:19 | -16.05875 | -47.84647 | 9087 ft | 290 kts | 168° |
| 2026-05-04 18:20 | -16.07830 | -47.84052 | 9265 ft | 296 kts | 154° |
| 2026-05-04 18:20 | -16.09709 | -47.83153 | 10105 ft | 299 kts | 155° |
| 2026-05-04 18:20 | -16.11632 | -47.82248 | 10614 ft | 313 kts | 155° |
| 2026-05-04 18:20 | -16.13691 | -47.81282 | 10924 ft | 333 kts | 155° |
| 2026-05-04 18:21 | -16.15840 | -47.80277 | 11379 ft | 346 kts | 155° |
| 2026-05-04 18:21 | -16.18052 | -47.79243 | 12131 ft | 347 kts | 155° |
| 2026-05-04 18:21 | -16.20258 | -47.78210 | 12844 ft | 350 kts | 155° |
| 2026-05-04 18:21 | -16.22487 | -47.77167 | 13569 ft | 353 kts | 155° |
| 2026-05-04 18:22 | -16.24737 | -47.76114 | 14241 ft | 355 kts | 155° |
| 2026-05-04 18:22 | -16.27000 | -47.75056 | 14874 ft | 358 kts | 156° |
| 2026-05-04 18:22 | -16.29280 | -47.73988 | 15500 ft | 361 kts | 156° |
| 2026-05-04 18:22 | -16.31579 | -47.72911 | 16113 ft | 363 kts | 156° |
| 2026-05-04 18:23 | -16.33892 | -47.71827 | 16711 ft | 366 kts | 156° |
| 2026-05-04 18:23 | -16.36223 | -47.70735 | 17286 ft | 369 kts | 156° |
| 2026-05-04 18:23 | -16.38577 | -47.69631 | 17872 ft | 372 kts | 156° |
| 2026-05-04 18:23 | -16.40943 | -47.68522 | 18414 ft | 375 kts | 157° |
| 2026-05-04 18:24 | -16.43334 | -47.67400 | 18905 ft | 377 kts | 157° |
| 2026-05-04 18:24 | -16.45731 | -47.66275 | 19373 ft | 380 kts | 157° |
| 2026-05-04 18:24 | -16.48124 | -47.65152 | 19844 ft | 382 kts | 157° |
| 2026-05-04 18:24 | -16.50589 | -47.63994 | 20305 ft | 385 kts | 157° |
| 2026-05-04 18:25 | -16.53043 | -47.62843 | 20775 ft | 388 kts | 157° |
| 2026-05-04 18:25 | -16.55510 | -47.61684 | 21221 ft | 390 kts | 157° |
| 2026-05-04 18:25 | -16.57993 | -47.60518 | 21676 ft | 393 kts | 157° |
| 2026-05-04 18:25 | -16.60495 | -47.59342 | 22116 ft | 396 kts | 157° |
| 2026-05-04 18:26 | -16.62984 | -47.58171 | 22550 ft | 398 kts | 157° |
| 2026-05-04 18:26 | -16.65515 | -47.56982 | 22994 ft | 401 kts | 157° |
| 2026-05-04 18:26 | -16.68065 | -47.55782 | 23418 ft | 404 kts | 157° |
| 2026-05-04 18:26 | -16.70628 | -47.54576 | 23813 ft | 406 kts | 157° |
| 2026-05-04 18:27 | -16.73220 | -47.53357 | 24162 ft | 409 kts | 158° |
| 2026-05-04 18:27 | -16.75820 | -47.52133 | 24518 ft | 411 kts | 158° |
| 2026-05-04 18:27 | -16.78433 | -47.50902 | 24862 ft | 414 kts | 158° |
| 2026-05-04 18:27 | -16.81067 | -47.49662 | 25206 ft | 416 kts | 158° |
| 2026-05-04 18:28 | -16.83712 | -47.48416 | 25553 ft | 419 kts | 158° |
| 2026-05-04 18:28 | -16.86383 | -47.47157 | 25901 ft | 421 kts | 158° |
| 2026-05-04 18:28 | -16.89064 | -47.45892 | 26237 ft | 424 kts | 158° |
| 2026-05-04 18:28 | -16.91762 | -47.44620 | 26581 ft | 426 kts | 159° |
| 2026-05-04 18:29 | -16.94472 | -47.43342 | 26922 ft | 429 kts | 159° |
| 2026-05-04 18:29 | -16.97195 | -47.42056 | 27255 ft | 431 kts | 159° |
| 2026-05-04 18:29 | -16.99939 | -47.40761 | 27583 ft | 434 kts | 159° |
| 2026-05-04 18:29 | -17.02693 | -47.39460 | 27897 ft | 437 kts | 159° |
| 2026-05-04 18:30 | -17.08273 | -47.36823 | 28542 ft | 441 kts | 159° |
| 2026-05-04 18:30 | -17.11034 | -47.35519 | 28837 ft | 444 kts | 159° |
| 2026-05-04 18:30 | -17.13898 | -47.34164 | 29140 ft | 446 kts | 160° |
| 2026-05-04 18:31 | -17.16689 | -47.32843 | 29441 ft | 449 kts | 160° |
| 2026-05-04 18:31 | -17.19583 | -47.31474 | 29743 ft | 451 kts | 160° |
| 2026-05-04 18:31 | -17.22406 | -47.30138 | 30032 ft | 453 kts | 160° |
| 2026-05-04 18:31 | -17.25290 | -47.28772 | 30293 ft | 455 kts | 160° |
| 2026-05-04 18:32 | -17.28188 | -47.27399 | 30539 ft | 457 kts | 160° |
| 2026-05-04 18:32 | -17.31083 | -47.26028 | 30805 ft | 459 kts | 160° |
| 2026-05-04 18:32 | -17.33995 | -47.24648 | 31046 ft | 460 kts | 160° |
| 2026-05-04 18:32 | -17.36911 | -47.23265 | 31290 ft | 462 kts | 160° |
| 2026-05-04 18:33 | -17.39853 | -47.21870 | 31535 ft | 463 kts | 160° |
| 2026-05-04 18:33 | -17.42791 | -47.20475 | 31772 ft | 465 kts | 160° |
| 2026-05-04 18:33 | -17.45737 | -47.19077 | 32020 ft | 467 kts | 160° |
| 2026-05-04 18:33 | -17.48705 | -47.17668 | 32247 ft | 468 kts | 161° |
| 2026-05-04 18:34 | -17.51707 | -47.16384 | 32459 ft | 465 kts | 167° |
| 2026-05-04 18:34 | -17.54788 | -47.15325 | 32711 ft | 466 kts | 166° |
| 2026-05-04 18:34 | -17.57850 | -47.14231 | 32995 ft | 466 kts | 166° |
| 2026-05-04 18:34 | -17.60920 | -47.13116 | 33294 ft | 466 kts | 166° |
| 2026-05-04 18:35 | -17.63977 | -47.11997 | 33601 ft | 465 kts | 166° |
| 2026-05-04 18:35 | -17.67035 | -47.10876 | 33910 ft | 464 kts | 166° |
| 2026-05-04 18:35 | -17.70091 | -47.09754 | 34077 ft | 464 kts | 166° |
| 2026-05-04 18:36 | -17.76161 | -47.07524 | 34065 ft | 461 kts | 166° |
| 2026-05-04 18:36 | -17.82219 | -47.05297 | 34064 ft | 462 kts | 166° |
| 2026-05-04 18:37 | -17.88273 | -47.03070 | 34067 ft | 462 kts | 166° |
| 2026-05-04 18:37 | -17.94345 | -47.00835 | 34062 ft | 462 kts | 166° |
| 2026-05-04 18:38 | -18.00409 | -46.98601 | 34063 ft | 462 kts | 166° |
| 2026-05-04 18:38 | -18.06438 | -46.96378 | 34063 ft | 462 kts | 166° |
| 2026-05-04 18:39 | -18.12506 | -46.94140 | 34068 ft | 462 kts | 166° |
| 2026-05-04 18:39 | -18.18588 | -46.91894 | 34064 ft | 462 kts | 166° |
| 2026-05-04 18:40 | -18.24655 | -46.89653 | 34070 ft | 463 kts | 166° |
| 2026-05-04 18:40 | -18.30733 | -46.87406 | 34073 ft | 463 kts | 166° |
| 2026-05-04 18:41 | -18.35778 | -46.85539 | 34075 ft | 463 kts | 166° |
| 2026-05-04 18:41 | -18.41858 | -46.83288 | 34077 ft | 463 kts | 166° |
| 2026-05-04 18:42 | -18.47936 | -46.81036 | 34074 ft | 463 kts | 166° |
| 2026-05-04 18:42 | -18.54033 | -46.78775 | 34075 ft | 464 kts | 166° |
| 2026-05-04 18:43 | -18.60117 | -46.76517 | 34082 ft | 464 kts | 166° |
| 2026-05-04 18:43 | -18.66210 | -46.74255 | 34080 ft | 464 kts | 166° |
| 2026-05-04 18:44 | -18.72291 | -46.71994 | 34087 ft | 464 kts | 166° |
| 2026-05-04 18:44 | -18.78395 | -46.69724 | 34085 ft | 464 kts | 166° |
| 2026-05-04 18:45 | -18.84449 | -46.67471 | 34086 ft | 464 kts | 166° |
| 2026-05-04 18:45 | -18.90581 | -46.65187 | 34084 ft | 465 kts | 166° |
| 2026-05-04 18:46 | -18.96658 | -46.62798 | 34088 ft | 466 kts | 165° |
| 2026-05-04 18:46 | -19.02669 | -46.60378 | 34088 ft | 466 kts | 165° |
| 2026-05-04 18:47 | -19.08739 | -46.57938 | 34086 ft | 466 kts | 165° |
| 2026-05-04 18:47 | -19.14805 | -46.55498 | 34082 ft | 466 kts | 165° |
| 2026-05-04 18:48 | -19.20870 | -46.53057 | 34085 ft | 467 kts | 165° |
| 2026-05-04 18:48 | -19.26936 | -46.50614 | 34092 ft | 467 kts | 165° |
| 2026-05-04 18:49 | -19.33009 | -46.48165 | 34093 ft | 467 kts | 165° |
| 2026-05-04 18:49 | -19.39081 | -46.45714 | 34102 ft | 467 kts | 165° |
| 2026-05-04 18:50 | -19.45165 | -46.43258 | 34097 ft | 467 kts | 165° |
| 2026-05-04 18:50 | -19.51237 | -46.40804 | 34100 ft | 467 kts | 165° |
| 2026-05-04 18:51 | -19.57322 | -46.38343 | 34102 ft | 468 kts | 165° |
| 2026-05-04 18:51 | -19.63362 | -46.35898 | 34106 ft | 468 kts | 165° |
| 2026-05-04 18:52 | -19.69443 | -46.33435 | 34110 ft | 468 kts | 165° |
| 2026-05-04 18:52 | -19.75528 | -46.30966 | 34108 ft | 468 kts | 165° |
| 2026-05-04 18:53 | -19.81611 | -46.28494 | 34106 ft | 468 kts | 166° |
| 2026-05-04 18:53 | -19.87693 | -46.26022 | 34109 ft | 468 kts | 166° |
| 2026-05-04 18:54 | -19.93785 | -46.23542 | 34110 ft | 468 kts | 166° |
| 2026-05-04 18:54 | -19.99869 | -46.21064 | 34109 ft | 468 kts | 166° |
| 2026-05-04 18:55 | -20.05961 | -46.18581 | 34107 ft | 469 kts | 166° |
| 2026-05-04 18:55 | -20.15092 | -46.14855 | 34108 ft | 469 kts | 166° |
| 2026-05-04 18:56 | -20.21179 | -46.12368 | 34103 ft | 469 kts | 166° |
| 2026-05-04 18:56 | -20.27282 | -46.09873 | 34108 ft | 469 kts | 166° |
| 2026-05-04 18:57 | -20.33368 | -46.07383 | 34110 ft | 468 kts | 166° |
| 2026-05-04 18:57 | -20.39447 | -46.04894 | 34102 ft | 468 kts | 166° |
| 2026-05-04 18:58 | -20.45529 | -46.02401 | 34108 ft | 468 kts | 166° |
| 2026-05-04 18:58 | -20.51613 | -45.99905 | 34099 ft | 468 kts | 166° |
| 2026-05-04 18:59 | -20.57658 | -45.97423 | 34103 ft | 468 kts | 166° |
| 2026-05-04 18:59 | -20.63737 | -45.94925 | 34103 ft | 468 kts | 166° |
| 2026-05-04 19:00 | -20.69829 | -45.92420 | 34108 ft | 468 kts | 166° |
| 2026-05-04 19:00 | -20.75906 | -45.89914 | 34106 ft | 468 kts | 166° |
| 2026-05-04 19:01 | -20.81985 | -45.87405 | 34108 ft | 468 kts | 166° |
| 2026-05-04 19:01 | -20.88159 | -45.85865 | 34100 ft | 443 kts | 189° |
| 2026-05-04 19:02 | -20.94151 | -45.86917 | 34099 ft | 436 kts | 198° |
| 2026-05-04 19:02 | -21.00064 | -45.88289 | 34107 ft | 435 kts | 199° |
| 2026-05-04 19:03 | -21.05944 | -45.89733 | 34104 ft | 434 kts | 199° |
| 2026-05-04 19:03 | -21.11840 | -45.91199 | 34108 ft | 434 kts | 199° |
| 2026-05-04 19:04 | -21.17715 | -45.92663 | 34106 ft | 434 kts | 199° |
| 2026-05-04 19:04 | -21.23596 | -45.94129 | 34107 ft | 434 kts | 199° |
| 2026-05-04 19:05 | -21.29471 | -45.95596 | 34106 ft | 434 kts | 199° |
| 2026-05-04 19:05 | -21.35352 | -45.97065 | 34107 ft | 434 kts | 199° |
| 2026-05-04 19:06 | -21.41228 | -45.98534 | 34117 ft | 433 kts | 200° |
| 2026-05-04 19:06 | -21.47067 | -45.99995 | 34116 ft | 433 kts | 199° |
| 2026-05-04 19:07 | -21.52937 | -46.01465 | 34110 ft | 433 kts | 199° |
| 2026-05-04 19:07 | -21.58802 | -46.02934 | 34126 ft | 433 kts | 199° |
| 2026-05-04 19:08 | -21.64659 | -46.04402 | 34008 ft | 429 kts | 199° |
| 2026-05-04 19:08 | -21.67551 | -46.05127 | 33543 ft | 422 kts | 199° |
| 2026-05-04 19:08 | -21.70376 | -46.05835 | 33283 ft | 412 kts | 199° |
| 2026-05-04 19:09 | -21.73132 | -46.06528 | 32937 ft | 403 kts | 200° |
| 2026-05-04 19:09 | -21.75892 | -46.07223 | 32374 ft | 412 kts | 199° |
| 2026-05-04 19:09 | -21.78696 | -46.07927 | 31802 ft | 416 kts | 199° |
| 2026-05-04 19:09 | -21.81522 | -46.08637 | 31275 ft | 417 kts | 199° |
| 2026-05-04 19:10 | -21.84336 | -46.09344 | 30762 ft | 414 kts | 199° |
| 2026-05-04 19:10 | -21.87131 | -46.10048 | 30238 ft | 410 kts | 199° |
| 2026-05-04 19:10 | -21.89900 | -46.10744 | 29628 ft | 406 kts | 199° |
| 2026-05-04 19:10 | -21.92639 | -46.11434 | 29088 ft | 404 kts | 199° |
| 2026-05-04 19:11 | -21.95370 | -46.12123 | 28597 ft | 402 kts | 198° |
| 2026-05-04 19:11 | -21.98091 | -46.12808 | 28091 ft | 400 kts | 198° |
| 2026-05-04 19:11 | -22.00792 | -46.13489 | 27591 ft | 398 kts | 198° |
| 2026-05-04 19:11 | -22.03484 | -46.14168 | 27100 ft | 396 kts | 198° |
| 2026-05-04 19:12 | -22.06159 | -46.14843 | 26612 ft | 394 kts | 198° |
| 2026-05-04 19:12 | -22.11489 | -46.16189 | 25655 ft | 391 kts | 198° |
| 2026-05-04 19:12 | -22.14124 | -46.16854 | 25187 ft | 389 kts | 197° |
| 2026-05-04 19:13 | -22.16757 | -46.17520 | 24722 ft | 388 kts | 197° |
| 2026-05-04 19:13 | -22.19376 | -46.18182 | 24266 ft | 386 kts | 197° |
| 2026-05-04 19:13 | -22.21992 | -46.18843 | 23819 ft | 385 kts | 197° |
| 2026-05-04 19:13 | -22.24589 | -46.19501 | 23303 ft | 383 kts | 197° |
| 2026-05-04 19:14 | -22.27182 | -46.20157 | 22822 ft | 382 kts | 197° |
| 2026-05-04 19:14 | -22.29759 | -46.20809 | 22387 ft | 380 kts | 197° |
| 2026-05-04 19:14 | -22.32346 | -46.21385 | 21916 ft | 381 kts | 192° |
| 2026-05-04 19:14 | -22.34960 | -46.21763 | 21472 ft | 379 kts | 192° |
| 2026-05-04 19:15 | -22.37561 | -46.22157 | 21027 ft | 376 kts | 192° |
| 2026-05-04 19:15 | -22.40155 | -46.22561 | 20602 ft | 374 kts | 192° |
| 2026-05-04 19:15 | -22.42726 | -46.22968 | 20152 ft | 373 kts | 192° |
| 2026-05-04 19:15 | -22.45292 | -46.23376 | 19716 ft | 372 kts | 193° |
| 2026-05-04 19:16 | -22.47812 | -46.23779 | 19277 ft | 371 kts | 193° |
| 2026-05-04 19:16 | -22.50396 | -46.24192 | 18822 ft | 371 kts | 193° |
| 2026-05-04 19:16 | -22.52955 | -46.24602 | 18384 ft | 371 kts | 193° |
| 2026-05-04 19:16 | -22.55502 | -46.25000 | 18007 ft | 367 kts | 192° |
| 2026-05-04 19:17 | -22.58003 | -46.25387 | 17758 ft | 359 kts | 192° |
| 2026-05-04 19:17 | -22.60423 | -46.25763 | 17531 ft | 352 kts | 192° |
| 2026-05-04 19:17 | -22.62823 | -46.26135 | 17311 ft | 344 kts | 192° |
| 2026-05-04 19:17 | -22.65165 | -46.26499 | 17080 ft | 338 kts | 192° |
| 2026-05-04 19:18 | -22.67471 | -46.26858 | 16856 ft | 331 kts | 192° |
| 2026-05-04 19:18 | -22.69725 | -46.27208 | 16637 ft | 323 kts | 192° |
| 2026-05-04 19:18 | -22.71931 | -46.27551 | 16425 ft | 317 kts | 192° |
| 2026-05-04 19:18 | -22.74105 | -46.27891 | 16221 ft | 316 kts | 192° |
| 2026-05-04 19:19 | -22.76280 | -46.28229 | 16001 ft | 317 kts | 192° |
| 2026-05-04 19:19 | -22.78395 | -46.28793 | 15744 ft | 309 kts | 208° |
| 2026-05-04 19:19 | -22.80243 | -46.29936 | 15557 ft | 306 kts | 213° |
| 2026-05-04 19:19 | -22.82077 | -46.31103 | 15362 ft | 307 kts | 213° |
| 2026-05-04 19:20 | -22.83884 | -46.32340 | 15184 ft | 304 kts | 221° |
| 2026-05-04 19:20 | -22.85234 | -46.34061 | 15129 ft | 300 kts | 243° |
| 2026-05-04 19:20 | -22.85886 | -46.36196 | 15124 ft | 300 kts | 263° |
| 2026-05-04 19:20 | -22.85800 | -46.38453 | 15123 ft | 302 kts | 282° |
| 2026-05-04 19:21 | -22.85119 | -46.40614 | 15132 ft | 305 kts | 289° |
| 2026-05-04 19:21 | -22.84337 | -46.42746 | 15125 ft | 304 kts | 288° |
| 2026-05-04 19:21 | -22.83881 | -46.44967 | 15122 ft | 302 kts | 276° |
| 2026-05-04 19:21 | -22.83591 | -46.47220 | 15120 ft | 303 kts | 277° |
| 2026-05-04 19:22 | -22.83275 | -46.49483 | 15111 ft | 303 kts | 277° |
| 2026-05-04 19:22 | -22.82949 | -46.51741 | 15118 ft | 304 kts | 277° |
| 2026-05-04 19:22 | -22.82708 | -46.54005 | 15106 ft | 302 kts | 268° |
| 2026-05-04 19:22 | -22.82860 | -46.56276 | 15116 ft | 302 kts | 264° |
| 2026-05-04 19:23 | -22.83027 | -46.58546 | 15107 ft | 302 kts | 264° |
| 2026-05-04 19:23 | -22.83191 | -46.60820 | 15102 ft | 303 kts | 265° |
| 2026-05-04 19:23 | -22.83446 | -46.63072 | 15100 ft | 301 kts | 255° |
| 2026-05-04 19:23 | -22.84073 | -46.65238 | 15098 ft | 301 kts | 252° |
| 2026-05-04 19:24 | -22.84709 | -46.67404 | 15103 ft | 302 kts | 252° |
| 2026-05-04 19:24 | -22.85343 | -46.69574 | 15103 ft | 302 kts | 252° |
| 2026-05-04 19:24 | -22.86006 | -46.71726 | 15093 ft | 301 kts | 246° |
| 2026-05-04 19:24 | -22.87051 | -46.73697 | 15100 ft | 302 kts | 238° |
| 2026-05-04 19:25 | -22.88174 | -46.75614 | 15077 ft | 299 kts | 234° |
| 2026-05-04 19:25 | -22.89676 | -46.77149 | 14822 ft | 301 kts | 212° |
| 2026-05-04 19:25 | -22.91637 | -46.77951 | 14593 ft | 305 kts | 191° |
| 2026-05-04 19:25 | -22.93763 | -46.77907 | 14342 ft | 310 kts | 170° |
| 2026-05-04 19:26 | -22.95732 | -46.77030 | 14058 ft | 313 kts | 149° |
| 2026-05-04 19:26 | -22.97480 | -46.75587 | 13753 ft | 312 kts | 144° |
| 2026-05-04 19:26 | -22.99181 | -46.74129 | 13421 ft | 310 kts | 144° |
| 2026-05-04 19:26 | -23.00845 | -46.72683 | 13127 ft | 310 kts | 143° |
| 2026-05-04 19:27 | -23.02555 | -46.71185 | 12833 ft | 312 kts | 143° |
| 2026-05-04 19:27 | -23.04210 | -46.69725 | 12553 ft | 311 kts | 143° |
| 2026-05-04 19:27 | -23.05879 | -46.68250 | 12256 ft | 308 kts | 143° |
| 2026-05-04 19:27 | -23.06992 | -46.67265 | 12063 ft | 306 kts | 142° |
| 2026-05-04 19:28 | -23.08628 | -46.65815 | 11789 ft | 303 kts | 142° |
| 2026-05-04 19:28 | -23.10257 | -46.64372 | 11506 ft | 300 kts | 142° |
| 2026-05-04 19:28 | -23.11829 | -46.62977 | 11237 ft | 297 kts | 142° |
| 2026-05-04 19:28 | -23.13230 | -46.61733 | 11006 ft | 295 kts | 142° |
| 2026-05-04 19:29 | -23.14813 | -46.60329 | 10735 ft | 293 kts | 142° |
| 2026-05-04 19:29 | -23.16389 | -46.58931 | 10470 ft | 291 kts | 142° |
| 2026-05-04 19:29 | -23.17947 | -46.57548 | 10199 ft | 289 kts | 142° |
| 2026-05-04 19:29 | -23.19645 | -46.56419 | 9885 ft | 286 kts | 164° |
| 2026-05-04 19:30 | -23.21578 | -46.56220 | 9617 ft | 276 kts | 192° |
| 2026-05-04 19:30 | -23.23306 | -46.56891 | 9382 ft | 266 kts | 213° |
| 2026-05-04 19:30 | -23.24885 | -46.57943 | 9138 ft | 262 kts | 214° |
| 2026-05-04 19:30 | -23.26438 | -46.59002 | 8870 ft | 259 kts | 215° |
| 2026-05-04 19:31 | -23.27934 | -46.60039 | 8601 ft | 257 kts | 215° |
| 2026-05-04 19:31 | -23.29446 | -46.61097 | 8352 ft | 254 kts | 216° |
| 2026-05-04 19:31 | -23.30927 | -46.62141 | 8056 ft | 253 kts | 216° |
| 2026-05-04 19:31 | -23.32374 | -46.63162 | 7772 ft | 250 kts | 215° |
| 2026-05-04 19:32 | -23.33816 | -46.64185 | 7519 ft | 244 kts | 216° |
| 2026-05-04 19:32 | -23.35216 | -46.65180 | 7266 ft | 235 kts | 216° |
| 2026-05-04 19:32 | -23.36559 | -46.66133 | 7069 ft | 226 kts | 216° |
| 2026-05-04 19:32 | -23.37859 | -46.67056 | 6846 ft | 219 kts | 216° |
| 2026-05-04 19:33 | -23.39108 | -46.67944 | 6624 ft | 210 kts | 217° |
| 2026-05-04 19:33 | -23.40298 | -46.68791 | 6446 ft | 201 kts | 217° |
| 2026-05-04 19:33 | -23.41441 | -46.69605 | 6248 ft | 192 kts | 216° |
| 2026-05-04 19:33 | -23.42544 | -46.70395 | 6104 ft | 189 kts | 217° |
| 2026-05-04 19:34 | -23.43632 | -46.71189 | 6056 ft | 185 kts | 217° |
| 2026-05-04 19:34 | -23.44696 | -46.71972 | 5685 ft | 187 kts | 217° |
| 2026-05-04 19:34 | -23.45637 | -46.72930 | 5296 ft | 184 kts | 234° |
| 2026-05-04 19:34 | -23.46369 | -46.74061 | 4881 ft | 185 kts | 238° |
| 2026-05-04 19:35 | -23.47114 | -46.75218 | 4512 ft | 185 kts | 231° |
| 2026-05-04 19:35 | -23.48209 | -46.75857 | 4211 ft | 184 kts | 182° |
| 2026-05-04 19:35 | -23.49348 | -46.75361 | 4005 ft | 180 kts | 129° |
| 2026-05-04 19:35 | -23.49872 | -46.74136 | 4039 ft | 182 kts | 102° |
| 2026-05-04 19:36 | -23.50004 | -46.72748 | 4073 ft | 186 kts | 88° |
| 2026-05-04 19:36 | -23.49872 | -46.71352 | 4067 ft | 185 kts | 77° |
| 2026-05-04 19:36 | -23.49575 | -46.69986 | 4090 ft | 185 kts | 73° |
| 2026-05-04 19:36 | -23.49231 | -46.68635 | 4128 ft | 185 kts | 73° |
| 2026-05-04 19:37 | -23.48880 | -46.67293 | 4186 ft | 185 kts | 72° |
| 2026-05-04 19:37 | -23.48519 | -46.65943 | 4259 ft | 185 kts | 72° |
| 2026-05-04 19:37 | -23.48162 | -46.64592 | 4328 ft | 186 kts | 72° |
| 2026-05-04 19:37 | -23.47805 | -46.63230 | 4434 ft | 187 kts | 72° |
| 2026-05-04 19:38 | -23.47450 | -46.61869 | 4435 ft | 187 kts | 72° |
| 2026-05-04 19:38 | -23.47096 | -46.60510 | 4336 ft | 186 kts | 70° |
| 2026-05-04 19:38 | -23.46751 | -46.59160 | 4230 ft | 185 kts | 71° |
| 2026-05-04 19:38 | -23.46403 | -46.57810 | 4113 ft | 184 kts | 72° |
| 2026-05-04 19:39 | -23.46061 | -46.56476 | 4062 ft | 180 kts | 72° |
| 2026-05-04 19:39 | -23.45666 | -46.55213 | 3948 ft | 172 kts | 66° |
| 2026-05-04 19:39 | -23.45309 | -46.54024 | 3687 ft | 158 kts | 73° |
| 2026-05-04 19:39 | -23.45012 | -46.52907 | 3462 ft | 153 kts | 73° |
| 2026-05-04 19:40 | -23.44714 | -46.51800 | 3225 ft | 147 kts | 73° |
| 2026-05-04 19:40 | -23.44442 | -46.50755 | 2910 ft | 143 kts | 72° |
| 2026-05-04 19:40 | -23.44171 | -46.49715 | 2684 ft | 146 kts | 73° |
| 2026-05-04 19:40 | -23.43877 | -46.48669 | 2520 ft | 144 kts | 69° |
| 2026-05-04 19:41 | -23.43597 | -46.47693 | 2473 ft | 122 kts | 74° |
| 2026-05-04 19:41 | -23.43417 | -46.47036 | 2467 ft | 58 kts | 65° |
| 2026-05-04 19:41 | -23.43239 | -46.46806 | 2469 ft | 10 kts | 45° |
| 2026-05-04 19:41 | -23.43232 | -46.46798 | 2469 ft | 0 kts | 44° |
| 2026-05-04 19:42 | -23.43231 | -46.46797 | 2469 ft | 0 kts | 44° |
| 2026-05-04 19:42 | -23.43219 | -46.46784 | 2467 ft | 5 kts | 44° |
| 2026-05-04 19:42 | -23.43186 | -46.46751 | 2468 ft | 7 kts | 38° |
| 2026-05-04 19:43 | -23.43141 | -46.46721 | 2470 ft | 4 kts | 20° |
| 2026-05-04 19:43 | -23.43140 | -46.46721 | 2469 ft | 0 kts | 18° |
| 2026-05-04 19:44 | -23.43138 | -46.46720 | 2468 ft | 1 kts | 15° |
| 2026-05-04 19:44 | -23.43107 | -46.46722 | 2471 ft | 10 kts | 352° |
| 2026-05-04 19:44 | -23.43020 | -46.46746 | 2466 ft | 16 kts | 343° |
| 2026-05-04 19:44 | -23.42912 | -46.46779 | 2466 ft | 16 kts | 342° |
| 2026-05-04 19:45 | -23.42864 | -46.46872 | 2465 ft | 17 kts | 257° |
| 2026-05-04 19:45 | -23.42897 | -46.47002 | 2468 ft | 19 kts | 254° |
| 2026-05-04 19:45 | -23.42936 | -46.47152 | 2465 ft | 22 kts | 253° |
| 2026-05-04 19:45 | -23.42981 | -46.47318 | 2465 ft | 22 kts | 253° |
| 2026-05-04 19:46 | -23.43023 | -46.47477 | 2459 ft | 22 kts | 254° |
| 2026-05-04 19:46 | -23.43072 | -46.47644 | 2462 ft | 24 kts | 253° |
| 2026-05-04 19:46 | -23.43117 | -46.47814 | 2462 ft | 23 kts | 254° |
| 2026-05-04 19:46 | -23.43164 | -46.47985 | 2462 ft | 22 kts | 252° |
| 2026-05-04 19:47 | -23.43157 | -46.48104 | 2465 ft | 12 kts | 320° |
| 2026-05-04 19:47 | -23.43085 | -46.48128 | 2464 ft | 12 kts | 351° |
| 2026-05-04 19:47 | -23.42994 | -46.48138 | 2466 ft | 13 kts | 355° |
| 2026-05-04 19:47 | -23.42933 | -46.48136 | 2461 ft | 10 kts | 17° |
| 2026-05-04 19:48 | -23.42895 | -46.48092 | 2462 ft | 7 kts | 76° |
| 2026-05-04 19:48 | -23.42891 | -46.48074 | 2463 ft | 0 kts | 79° |